Time;durP1;ratioP1;P1;durP2;ratioP2;P2;SDS_P1;SDS_P2;PMS_P1;PMS_P2;Temp;Humidity;BMP_temperature;BMP_pressure;BME280_temperature;BME280_humidity;BME280_pressure;Samples;Min_cycle;Max_cycle;Signal;HPM_P1;HPM_P2
2022/07/01 00:02:08;;;;;;;80.70;17.45;;;;;;;;;;6218801;23;20326;-81
2022/07/01 00:04:44;;;;;;;57.58;17.80;;;;;;;;;;6220108;23;20021;-81
2022/07/01 00:07:12;;;;;;;33.42;15.55;;;;;;;;;;6218560;23;20041;-81
2022/07/01 00:09:41;;;;;;;45.75;16.67;;;;;;;;;;6218745;23;20733;-81
2022/07/01 00:12:09;;;;;;;32.88;14.52;;;;;;;;;;6218444;23;20145;-80
2022/07/01 00:14:36;;;;;;;46.33;18.02;;;;;;;;;;6217305;23;20029;-80
2022/07/01 00:17:06;;;;;;;42.72;16.83;;;;;;;;;;6219195;23;20583;-81
2022/07/01 00:19:34;;;;;;;45.85;16.70;;;;;;;;;;6218131;23;20044;-81
2022/07/01 00:22:02;;;;;;;43.88;17.90;;;;;;;;;;6218369;23;20037;-81
2022/07/01 00:24:29;;;;;;;91.28;19.27;;;;;;;;;;6218695;23;20021;-80
2022/07/01 00:26:59;;;;;;;55.05;18.52;;;;;;;;;;6219191;23;20088;-81
2022/07/01 00:29:27;;;;;;;73.13;21.25;;;;;;;;;;6218807;23;20044;-81
2022/07/01 00:31:57;;;;;;;81.20;20.75;;;;;;;;;;6219146;23;20096;-81
2022/07/01 00:34:27;;;;;;;73.82;20.67;;;;;;;;;;6218917;23;20009;-81
2022/07/01 00:36:57;;;;;;;44.22;17.77;;;;;;;;;;6218931;23;20025;-81
2022/07/01 00:39:25;;;;;;;40.63;17.85;;;;;;;;;;6217770;23;20023;-81
2022/07/01 00:41:53;;;;;;;33.20;16.40;;;;;;;;;;6218187;23;20096;-81
2022/07/01 00:44:22;;;;;;;29.33;15.55;;;;;;;;;;6217931;23;20498;-81
2022/07/01 00:46:50;;;;;;;41.05;16.38;;;;;;;;;;6217059;23;20054;-81
2022/07/01 00:49:18;;;;;;;41.10;17.73;;;;;;;;;;6218761;23;20112;-81
2022/07/01 00:51:46;;;;;;;41.67;17.77;;;;;;;;;;6218621;23;20021;-81
2022/07/01 00:54:14;;;;;;;34.88;16.77;;;;;;;;;;6219204;23;20017;-81
2022/07/01 00:56:41;;;;;;;36.90;18.40;;;;;;;;;;6218787;23;20493;-82
2022/07/01 00:59:11;;;;;;;55.45;21.70;;;;;;;;;;6219425;23;20746;-81
2022/07/01 01:01:44;;;;;;;37.50;20.45;;;;;;;;;;6219086;23;20080;-80
2022/07/01 01:04:14;;;;;;;50.08;22.90;;;;;;;;;;6218211;23;20092;-81
2022/07/01 01:06:47;;;;;;;61.65;23.67;;;;;;;;;;6218715;23;20467;-80
2022/07/01 01:09:15;;;;;;;67.75;24.92;;;;;;;;;;6218920;23;20031;-80
2022/07/01 01:11:42;;;;;;;45.75;23.08;;;;;;;;;;6218555;23;20080;-80
2022/07/01 01:14:11;;;;;;;61.58;26.00;;;;;;;;;;6218798;23;20013;-80
2022/07/01 01:16:38;;;;;;;44.75;24.63;;;;;;;;;;6218193;23;20096;-80
2022/07/01 01:19:08;;;;;;;60.40;26.70;;;;;;;;;;6218552;23;20675;-80
2022/07/01 01:21:37;;;;;;;65.93;27.58;;;;;;;;;;6219187;23;20017;-81
2022/07/01 01:24:08;;;;;;;63.55;28.58;;;;;;;;;;6219520;23;20025;-80
2022/07/01 01:26:38;;;;;;;52.70;27.20;;;;;;;;;;6218859;23;20013;-81
2022/07/01 01:29:07;;;;;;;47.67;24.48;;;;;;;;;;6217883;23;20017;-81
2022/07/01 01:31:37;;;;;;;51.90;27.63;;;;;;;;;;6218928;23;20029;-81
2022/07/01 01:34:07;;;;;;;;;;;;;;;;;;6218993;23;20447;-81
2022/07/01 01:36:38;;;;;;;53.08;26.20;;;;;;;;;;6218081;23;44478;-80
2022/07/01 01:39:27;;;;;;;57.03;27.77;;;;;;;;;;6217915;23;20088;-80
2022/07/01 01:41:53;;;;;;;58.80;27.55;;;;;;;;;;6220128;22;20025;-80
2022/07/01 01:44:20;;;;;;;53.58;27.08;;;;;;;;;;6218762;23;21008;-80
2022/07/01 01:46:52;;;;;;;66.13;28.30;;;;;;;;;;6218332;23;20013;-80
2022/07/01 01:49:20;;;;;;;53.30;26.63;;;;;;;;;;6219642;23;20136;-80
2022/07/01 01:51:48;;;;;;;62.42;29.15;;;;;;;;;;6217535;23;20107;-80
2022/07/01 01:54:15;;;;;;;62.35;27.15;;;;;;;;;;6218712;23;20885;-81
2022/07/01 01:56:43;;;;;;;71.70;28.40;;;;;;;;;;6218783;23;20021;-80
2022/07/01 01:59:12;;;;;;;58.53;27.40;;;;;;;;;;6219186;23;20458;-81
2022/07/01 02:01:45;;;;;;;66.18;28.33;;;;;;;;;;6219069;23;20027;-81
2022/07/01 02:04:15;;;;;;;58.75;27.80;;;;;;;;;;6220194;23;20017;-81
2022/07/01 02:06:42;;;;;;;63.63;27.65;;;;;;;;;;6218999;23;20100;-81
2022/07/01 02:09:10;;;;;;;61.90;27.75;;;;;;;;;;6219060;23;20047;-80
2022/07/01 02:11:37;;;;;;;52.92;27.02;;;;;;;;;;6217922;23;20033;-80
2022/07/01 02:14:05;;;;;;;51.42;27.42;;;;;;;;;;6218908;23;20021;-81
2022/07/01 02:16:32;;;;;;;61.35;28.52;;;;;;;;;;6219458;23;20021;-81
2022/07/01 02:18:59;;;;;;;49.08;26.90;;;;;;;;;;6218972;23;20092;-81
2022/07/01 02:21:28;;;;;;;45.17;25.85;;;;;;;;;;6219721;23;20009;-84
2022/07/01 02:24:01;;;;;;;72.95;30.15;;;;;;;;;;6219717;23;20044;-81
2022/07/01 02:26:28;;;;;;;71.88;29.73;;;;;;;;;;6219224;23;20423;-81
2022/07/01 02:28:56;;;;;;;77.20;30.95;;;;;;;;;;6218747;23;20788;-81
2022/07/01 02:31:23;;;;;;;104.18;31.92;;;;;;;;;;6219053;23;20075;-81
2022/07/01 02:33:51;;;;;;;57.35;29.92;;;;;;;;;;6218085;23;20017;-81
2022/07/01 02:36:18;;;;;;;57.13;28.10;;;;;;;;;;6218733;23;20013;-81
2022/07/01 02:38:46;;;;;;;67.65;30.13;;;;;;;;;;6218389;23;20078;-80
2022/07/01 02:41:13;;;;;;;74.53;29.80;;;;;;;;;;6219177;23;20020;-80
2022/07/01 02:43:41;;;;;;;67.00;29.38;;;;;;;;;;6218391;23;20022;-80
2022/07/01 02:46:08;;;;;;;66.03;28.92;;;;;;;;;;6219252;23;20045;-81
2022/07/01 02:48:35;;;;;;;60.58;28.17;;;;;;;;;;6218972;23;20017;-80
2022/07/01 02:51:03;;;;;;;69.03;28.02;;;;;;;;;;6218818;23;20029;-80
2022/07/01 02:53:30;;;;;;;57.70;27.23;;;;;;;;;;6219200;23;20028;-80
2022/07/01 02:55:58;;;;;;;54.75;25.83;;;;;;;;;;6219314;23;20072;-81
2022/07/01 02:58:27;;;;;;;71.07;27.73;;;;;;;;;;6219001;23;20859;-82
2022/07/01 03:00:55;;;;;;;64.05;26.80;;;;;;;;;;6219519;23;20025;-81
2022/07/01 03:03:22;;;;;;;59.67;27.80;;;;;;;;;;6218893;23;20020;-80
2022/07/01 03:05:49;;;;;;;71.68;28.38;;;;;;;;;;6218965;23;20017;-80
2022/07/01 03:08:17;;;;;;;90.72;28.92;;;;;;;;;;6218163;23;20013;-81
2022/07/01 03:10:47;;;;;;;90.05;27.35;;;;;;;;;;6218476;23;20029;-80
2022/07/01 03:13:19;;;;;;;83.53;27.83;;;;;;;;;;6217785;23;20048;-81
2022/07/01 03:15:46;;;;;;;106.72;30.58;;;;;;;;;;6218260;23;20018;-81
2022/07/01 03:18:13;;;;;;;72.03;24.30;;;;;;;;;;6218640;23;20017;-82
2022/07/01 03:20:42;;;;;;;65.05;23.52;;;;;;;;;;6219789;23;20052;-81
2022/07/01 03:23:09;;;;;;;107.60;27.95;;;;;;;;;;6218684;23;20040;-80
2022/07/01 03:25:37;;;;;;;64.57;25.73;;;;;;;;;;6218284;23;20021;-81
2022/07/01 03:28:04;;;;;;;95.40;27.52;;;;;;;;;;6218858;23;20021;-81
2022/07/01 03:30:32;;;;;;;58.17;25.38;;;;;;;;;;6218488;23;20466;-81
2022/07/01 03:33:03;;;;;;;65.38;25.35;;;;;;;;;;6217802;23;20678;-80
2022/07/01 03:35:36;;;;;;;68.57;25.92;;;;;;;;;;6218376;23;20055;-81
2022/07/01 03:38:03;;;;;;;55.92;25.02;;;;;;;;;;6219147;23;20096;-81
2022/07/01 03:40:33;;;;;;;61.08;26.83;;;;;;;;;;6217736;23;20021;-81
2022/07/01 03:43:01;;;;;;;51.83;24.67;;;;;;;;;;6217716;23;20470;-80
2022/07/01 03:45:30;;;;;;;65.40;27.38;;;;;;;;;;6217696;23;20695;-82
2022/07/01 03:47:58;;;;;;;67.20;26.70;;;;;;;;;;6218936;23;20024;-81
2022/07/01 03:50:29;;;;;;;62.17;26.42;;;;;;;;;;6220103;23;20029;-81
2022/07/01 03:55:43;;;;;;;61.63;26.30;;;;;;;;;;6218666;22;20838;-81
2022/07/01 03:58:11;;;;;;;64.10;28.30;;;;;;;;;;6217258;23;20025;-80
2022/07/01 04:00:42;;;;;;;67.72;27.98;;;;;;;;;;6217876;23;20017;-81
2022/07/01 04:03:10;;;;;;;69.20;26.85;;;;;;;;;;6217990;23;20766;-82
2022/07/01 04:05:40;;;;;;;64.55;27.38;;;;;;;;;;6217783;23;20781;-84
2022/07/01 04:08:08;;;;;;;86.93;27.90;;;;;;;;;;6218105;23;20026;-81
2022/07/01 04:10:38;;;;;;;58.40;27.35;;;;;;;;;;6218241;23;20840;-81
2022/07/01 04:13:05;;;;;;;67.20;26.63;;;;;;;;;;6217991;23;20025;-80
2022/07/01 04:15:56;;;;;;;59.92;27.10;;;;;;;;;;6218666;23;20701;-80
2022/07/01 04:18:23;;;;;;;53.10;23.63;;;;;;;;;;6220368;23;20154;-81
2022/07/01 04:23:37;;;;;;;58.60;24.52;;;;;;;;;;6219307;22;20047;-81
2022/07/01 04:26:04;;;;;;;55.60;24.80;;;;;;;;;;6218149;23;20013;-81
2022/07/01 04:28:52;;;;;;;54.45;24.73;;;;;;;;;;6218479;23;20021;-80
2022/07/01 04:31:20;;;;;;;51.00;23.88;;;;;;;;;;6218579;23;20017;-81
2022/07/01 04:33:50;;;;;;;63.85;24.80;;;;;;;;;;6218212;23;20021;-81
2022/07/01 04:36:25;;;;;;;74.28;25.80;;;;;;;;;;6217832;23;20025;-81
2022/07/01 04:38:53;;;;;;;52.78;23.58;;;;;;;;;;6218211;23;20064;-81
2022/07/01 04:44:07;;;;;;;59.15;22.73;;;;;;;;;;6219682;22;20904;-81
2022/07/01 04:46:37;;;;;;;60.83;23.95;;;;;;;;;;6217379;23;20076;-82
2022/07/01 04:49:04;;;;;;;54.08;23.23;;;;;;;;;;6217270;23;20470;-81
2022/07/01 04:51:34;;;;;;;52.72;23.10;;;;;;;;;;6217850;23;20084;-81
2022/07/01 04:54:03;;;;;;;49.63;21.50;;;;;;;;;;6217744;23;20041;-81
2022/07/01 04:56:30;;;;;;;60.25;22.75;;;;;;;;;;6221891;22;20132;-81
2022/07/01 04:59:00;;;;;;;54.47;22.38;;;;;;;;;;6223805;22;20048;-80
2022/07/01 05:01:28;;;;;;;53.83;22.90;;;;;;;;;;6222820;22;20027;-81
2022/07/01 05:03:56;;;;;;;56.20;21.65;;;;;;;;;;6222832;22;20051;-81
2022/07/01 05:06:24;;;;;;;64.35;21.63;;;;;;;;;;6223153;22;20021;-81
2022/07/01 05:08:56;;;;;;;54.20;22.10;;;;;;;;;;6222987;22;20486;-80
2022/07/01 05:11:25;;;;;;;52.87;23.70;;;;;;;;;;6223229;22;20028;-80
2022/07/01 05:13:52;;;;;;;53.90;23.27;;;;;;;;;;6222018;22;20024;-82
2022/07/01 05:16:20;;;;;;;39.08;21.13;;;;;;;;;;6222578;22;20063;-81
2022/07/01 05:24:19;;;;;;;49.13;22.48;;;;;;;;;;6248724;22;20023;-82
2022/07/01 05:26:47;;;;;;;41.08;21.05;;;;;;;;;;6222548;22;20021;-81
2022/07/01 05:29:15;;;;;;;50.45;22.83;;;;;;;;;;6222390;22;20016;-81
2022/07/01 05:31:43;;;;;;;47.80;22.23;;;;;;;;;;6222244;22;20023;-81
2022/07/01 05:34:10;;;;;;;42.22;21.35;;;;;;;;;;6222074;22;20625;-81
2022/07/01 05:36:38;;;;;;;43.42;21.60;;;;;;;;;;6222300;22;20067;-82
2022/07/01 05:39:06;;;;;;;44.97;20.27;;;;;;;;;;6223107;22;20370;-82
2022/07/01 05:41:42;;;;;;;35.90;21.00;;;;;;;;;;6225536;22;20087;-80
2022/07/01 05:44:11;;;;;;;40.00;19.75;;;;;;;;;;6224753;22;20017;-81
2022/07/01 05:46:41;;;;;;;35.80;20.05;;;;;;;;;;6224275;22;20047;-81
2022/07/01 05:49:08;;;;;;;44.30;20.60;;;;;;;;;;6224314;22;20462;-81
2022/07/01 05:51:41;;;;;;;31.73;17.90;;;;;;;;;;6225336;22;20020;-81
2022/07/01 05:54:08;;;;;;;33.25;19.17;;;;;;;;;;6223999;22;20025;-82
2022/07/01 05:56:36;;;;;;;32.88;17.90;;;;;;;;;;6223394;22;20021;-81
2022/07/01 05:59:03;;;;;;;33.05;19.13;;;;;;;;;;6225512;22;20017;-81
2022/07/01 06:01:31;;;;;;;31.85;17.90;;;;;;;;;;6224573;22;20024;-81
2022/07/01 06:03:58;;;;;;;32.53;18.13;;;;;;;;;;6223114;22;20013;-81
2022/07/01 06:06:26;;;;;;;29.80;17.02;;;;;;;;;;6223819;22;20017;-82
2022/07/01 06:08:56;;;;;;;28.88;16.45;;;;;;;;;;6223552;22;20013;-81
2022/07/01 06:11:26;;;;;;;33.72;18.65;;;;;;;;;;6224190;22;20031;-81
2022/07/01 06:13:58;;;;;;;36.20;18.77;;;;;;;;;;6223552;22;20028;-81
2022/07/01 06:16:33;;;;;;;32.65;18.30;;;;;;;;;;6225514;22;20048;-82
2022/07/01 06:19:00;;;;;;;32.45;17.52;;;;;;;;;;6223986;22;20439;-81
2022/07/01 06:21:28;;;;;;;30.80;17.88;;;;;;;;;;6231510;22;20005;-80
2022/07/01 06:24:00;;;;;;;26.50;16.45;;;;;;;;;;6227456;22;20017;-81
2022/07/01 06:26:28;;;;;;;28.75;14.93;;;;;;;;;;6223935;22;20017;-80
2022/07/01 06:28:57;;;;;;;26.45;15.25;;;;;;;;;;6227714;22;20493;-81
2022/07/01 06:31:25;;;;;;;28.13;16.33;;;;;;;;;;6224304;22;20940;-81
2022/07/01 06:33:54;;;;;;;26.92;14.57;;;;;;;;;;6223913;22;20024;-82
2022/07/01 06:36:25;;;;;;;23.88;13.32;;;;;;;;;;6224234;22;20025;-81
2022/07/01 06:38:53;;;;;;;31.92;16.10;;;;;;;;;;6250493;22;20020;-81
2022/07/01 06:41:28;;;;;;;27.25;13.73;;;;;;;;;;6225221;22;20024;-81
2022/07/01 06:43:58;;;;;;;20.35;11.90;;;;;;;;;;6223986;22;20446;-82
2022/07/01 06:46:26;;;;;;;26.45;13.13;;;;;;;;;;6223142;22;20013;-81
2022/07/01 06:49:00;;;;;;;22.55;13.05;;;;;;;;;;6225234;22;20021;-80
2022/07/01 06:51:27;;;;;;;20.63;11.35;;;;;;;;;;6224658;22;20025;-82
2022/07/01 06:53:55;;;;;;;22.33;12.43;;;;;;;;;;6223289;22;20017;-81
2022/07/01 06:56:22;;;;;;;23.88;12.60;;;;;;;;;;6249984;22;20111;-81
2022/07/01 06:58:50;;;;;;;18.45;11.20;;;;;;;;;;6224046;22;20024;-80
2022/07/01 07:01:17;;;;;;;19.83;10.73;;;;;;;;;;6223510;22;20021;-81
2022/07/01 07:03:45;;;;;;;16.30;10.32;;;;;;;;;;6222906;22;20016;-81
2022/07/01 07:06:15;;;;;;;16.00;8.63;;;;;;;;;;6222936;22;20016;-81
2022/07/01 07:08:45;;;;;;;18.70;9.57;;;;;;;;;;6250429;22;20044;-81
2022/07/01 07:11:15;;;;;;;19.63;9.52;;;;;;;;;;6249934;22;20032;-80
2022/07/01 07:13:42;;;;;;;19.40;9.10;;;;;;;;;;6222774;22;20031;-81
2022/07/01 07:16:13;;;;;;;21.10;9.13;;;;;;;;;;6223282;22;20021;-81
2022/07/01 07:18:40;;;;;;;16.80;8.15;;;;;;;;;;6222600;22;20906;-81
2022/07/01 07:21:08;;;;;;;19.13;9.30;;;;;;;;;;6250028;22;20028;-82
2022/07/01 07:23:41;;;;;;;17.33;8.32;;;;;;;;;;6224020;22;20125;-81
2022/07/01 07:26:08;;;;;;;16.38;8.43;;;;;;;;;;6225854;22;20024;-81
2022/07/01 07:28:36;;;;;;;12.02;6.90;;;;;;;;;;6251675;22;20016;-81
2022/07/01 07:31:03;;;;;;;14.75;6.00;;;;;;;;;;6224618;22;20047;-81
2022/07/01 07:33:31;;;;;;;12.85;4.88;;;;;;;;;;6250025;22;20023;-81
2022/07/01 07:36:01;;;;;;;12.98;5.93;;;;;;;;;;6223348;22;20067;-82
2022/07/01 07:38:29;;;;;;;11.77;5.03;;;;;;;;;;6250808;22;20051;-81
2022/07/01 07:41:00;;;;;;;13.20;4.90;;;;;;;;;;6225605;22;20107;-82
2022/07/01 07:43:28;;;;;;;12.73;5.47;;;;;;;;;;6223096;22;20071;-80
2022/07/01 07:45:57;;;;;;;10.98;4.82;;;;;;;;;;6250467;22;20055;-81
2022/07/01 07:48:25;;;;;;;13.95;4.45;;;;;;;;;;6222820;22;20016;-81
2022/07/01 07:50:52;;;;;;;11.25;4.35;;;;;;;;;;6222568;22;20024;-81
2022/07/01 07:53:19;;;;;;;11.05;4.75;;;;;;;;;;6222720;22;20075;-81
2022/07/01 07:55:46;;;;;;;12.07;3.92;;;;;;;;;;6249350;22;20051;-81
2022/07/01 07:58:14;;;;;;;14.45;3.42;;;;;;;;;;6250934;22;20319;-81
2022/07/01 08:00:41;;;;;;;10.50;3.40;;;;;;;;;;6222236;22;20029;-82
2022/07/01 08:03:08;;;;;;;17.95;3.83;;;;;;;;;;6222455;22;20052;-82
2022/07/01 08:05:39;;;;;;;9.82;3.45;;;;;;;;;;6222097;22;20021;-82
2022/07/01 08:08:08;;;;;;;12.05;2.90;;;;;;;;;;6248425;22;20860;-81
2022/07/01 08:10:35;;;;;;;13.35;3.05;;;;;;;;;;6249616;22;20478;-80
2022/07/01 08:13:04;;;;;;;11.02;3.10;;;;;;;;;;6249458;22;20020;-80
2022/07/01 08:15:32;;;;;;;9.00;3.40;;;;;;;;;;6249054;22;20051;-81
2022/07/01 08:18:00;;;;;;;11.93;2.90;;;;;;;;;;6249919;22;20024;-81
2022/07/01 08:20:27;;;;;;;9.82;3.03;;;;;;;;;;6223042;22;20048;-81
2022/07/01 08:22:54;;;;;;;7.13;2.70;;;;;;;;;;6249349;22;20083;-81
2022/07/01 08:25:21;;;;;;;6.72;2.50;;;;;;;;;;6222407;22;20016;-81
2022/07/01 08:27:50;;;;;;;9.15;2.42;;;;;;;;;;6223167;22;20024;-81
2022/07/01 08:30:18;;;;;;;8.82;2.58;;;;;;;;;;6222479;22;20029;-82
2022/07/01 08:32:47;;;;;;;6.57;2.50;;;;;;;;;;6221849;22;20012;-81
2022/07/01 08:35:14;;;;;;;7.82;2.20;;;;;;;;;;6222308;22;20054;-81
2022/07/01 08:37:44;;;;;;;9.95;2.10;;;;;;;;;;6249464;22;20052;-82
2022/07/01 08:40:11;;;;;;;7.95;2.08;;;;;;;;;;6249718;22;20024;-81
2022/07/01 08:42:39;;;;;;;7.60;2.38;;;;;;;;;;6222686;22;20016;-81
2022/07/01 08:45:06;;;;;;;10.35;2.05;;;;;;;;;;6222137;22;20027;-80
2022/07/01 08:47:33;;;;;;;9.48;1.83;;;;;;;;;;6222910;22;20071;-81
2022/07/01 08:50:01;;;;;;;7.20;2.20;;;;;;;;;;6222380;22;20020;-81
2022/07/01 08:52:29;;;;;;;10.05;1.90;;;;;;;;;;6249552;22;20036;-81
2022/07/01 08:54:59;;;;;;;8.65;1.85;;;;;;;;;;6223758;22;20024;-80
2022/07/01 08:57:27;;;;;;;7.13;1.67;;;;;;;;;;6221989;22;20071;-80
2022/07/01 09:00:02;;;;;;;7.07;1.65;;;;;;;;;;6250640;22;20056;-81
2022/07/01 09:02:49;;;;;;;5.78;1.30;;;;;;;;;;6226285;22;20017;-81
2022/07/01 09:05:16;;;;;;;3.90;1.20;;;;;;;;;;6222618;22;20780;-81
2022/07/01 09:07:44;;;;;;;4.78;1.40;;;;;;;;;;6250358;22;20028;-81
2022/07/01 09:10:18;;;;;;;5.10;1.30;;;;;;;;;;6249621;22;20103;-81
2022/07/01 09:12:48;;;;;;;5.97;1.30;;;;;;;;;;6223912;22;20064;-81
2022/07/01 09:15:26;;;;;;;6.28;1.60;;;;;;;;;;6251292;22;20845;-81
2022/07/01 09:17:54;;;;;;;4.65;1.30;;;;;;;;;;6251274;22;20028;-81
2022/07/01 09:20:24;;;;;;;7.32;1.80;;;;;;;;;;6250630;22;20033;-80
2022/07/01 09:23:04;;;;;;;5.57;1.25;;;;;;;;;;6249349;22;20024;-81
2022/07/01 09:25:44;;;;;;;9.13;1.70;;;;;;;;;;6223951;22;20789;-81
2022/07/01 09:28:23;;;;;;;8.93;2.42;;;;;;;;;;6250773;22;20040;-80
2022/07/01 09:30:51;;;;;;;7.10;1.10;;;;;;;;;;6250673;22;20462;-81
2022/07/01 09:33:19;;;;;;;4.80;1.33;;;;;;;;;;6223824;22;20095;-81
2022/07/01 09:35:50;;;;;;;6.95;1.38;;;;;;;;;;6250698;22;20044;-82
2022/07/01 09:38:20;;;;;;;5.45;1.10;;;;;;;;;;6250156;22;20024;-81
2022/07/01 09:40:59;;;;;;;6.45;1.23;;;;;;;;;;6226614;22;20032;-81
2022/07/01 09:43:28;;;;;;;4.13;1.00;;;;;;;;;;6223524;22;20781;-81
2022/07/01 09:45:57;;;;;;;6.00;1.00;;;;;;;;;;6250061;22;20155;-82
2022/07/01 09:48:27;;;;;;;3.22;0.95;;;;;;;;;;6249933;22;20032;-81
2022/07/01 09:50:54;;;;;;;6.97;1.13;;;;;;;;;;6223762;22;20063;-81
2022/07/01 09:53:24;;;;;;;4.10;1.15;;;;;;;;;;6223910;22;20051;-81
2022/07/01 09:55:52;;;;;;;1.92;0.80;;;;;;;;;;6223479;22;20024;-80
2022/07/01 09:58:19;;;;;;;4.95;0.93;;;;;;;;;;6223067;22;20017;-81
2022/07/01 10:00:47;;;;;;;7.13;1.10;;;;;;;;;;6222529;22;20112;-80
2022/07/01 10:03:15;;;;;;;3.03;0.90;;;;;;;;;;6223016;22;20032;-81
2022/07/01 10:05:48;;;;;;;3.10;0.85;;;;;;;;;;6222911;22;20088;-80
2022/07/01 10:08:28;;;;;;;4.13;1.23;;;;;;;;;;6222868;22;20031;-81
2022/07/01 10:11:10;;;;;;;4.68;1.30;;;;;;;;;;6249610;22;20394;-80
2022/07/01 10:13:37;;;;;;;4.25;1.00;;;;;;;;;;6222463;22;20056;-81
2022/07/01 10:16:05;;;;;;;3.55;1.27;;;;;;;;;;6249832;22;20853;-80
2022/07/01 10:18:32;;;;;;;2.72;0.90;;;;;;;;;;6249671;22;20025;-82
2022/07/01 10:21:00;;;;;;;4.63;0.95;;;;;;;;;;6222733;22;20623;-80
2022/07/01 10:23:41;;;;;;;3.03;0.85;;;;;;;;;;6249769;22;20831;-81
2022/07/01 10:26:10;;;;;;;4.32;1.00;;;;;;;;;;6249265;22;20434;-81
2022/07/01 10:28:45;;;;;;;2.70;1.00;;;;;;;;;;6249374;22;20021;-81
2022/07/01 10:31:17;;;;;;;5.25;1.15;;;;;;;;;;6222730;22;20009;-81
2022/07/01 10:33:46;;;;;;;5.15;1.33;;;;;;;;;;6249406;22;20055;-81
2022/07/01 10:36:14;;;;;;;3.38;0.88;;;;;;;;;;6249030;22;20025;-81
2022/07/01 10:39:06;;;;;;;7.38;0.95;;;;;;;;;;6249004;22;20020;-81
2022/07/01 10:41:39;;;;;;;7.93;1.30;;;;;;;;;;6222769;22;20063;-81
2022/07/01 10:44:09;;;;;;;;;;;;;;;;;;6223454;22;20025;-81
2022/07/01 10:46:44;;;;;;;2.80;0.95;;;;;;;;;;6223471;22;45047;-81
2022/07/01 10:49:12;;;;;;;4.53;1.08;;;;;;;;;;6223111;22;20056;-81
2022/07/01 10:51:53;;;;;;;3.25;1.17;;;;;;;;;;6222625;22;20025;-82
2022/07/01 10:54:47;;;;;;;4.20;1.25;;;;;;;;;;6249411;22;20031;-81
2022/07/01 11:00:08;;;;;;;4.78;1.05;;;;;;;;;;6249237;22;20048;-81
2022/07/01 11:02:46;;;;;;;4.18;1.25;;;;;;;;;;6213397;22;20031;-81
2022/07/01 11:05:16;;;;;;;3.83;1.45;;;;;;;;;;6221587;22;20027;-81
2022/07/01 11:07:47;;;;;;;4.28;1.33;;;;;;;;;;6222978;22;20020;-82
2022/07/01 11:10:31;;;;;;;8.55;1.27;;;;;;;;;;6224218;22;20017;-82
2022/07/01 11:13:01;;;;;;;3.92;1.35;;;;;;;;;;6249552;22;20051;-82
2022/07/01 11:15:50;;;;;;;4.45;1.05;;;;;;;;;;6223344;22;20027;-82
2022/07/01 11:18:22;;;;;;;2.97;1.10;;;;;;;;;;6223149;22;20737;-82
2022/07/01 11:21:08;;;;;;;4.65;0.90;;;;;;;;;;6226310;22;20044;-82
2022/07/01 11:23:53;;;;;;;3.03;1.00;;;;;;;;;;6224891;22;20055;-82
2022/07/01 11:26:34;;;;;;;4.53;0.90;;;;;;;;;;6225752;22;20027;-82
2022/07/01 11:29:10;;;;;;;5.25;1.25;;;;;;;;;;6252574;22;20076;-81
2022/07/01 11:31:40;;;;;;;2.80;1.00;;;;;;;;;;6248829;22;20017;-81
2022/07/01 11:34:15;;;;;;;2.92;1.00;;;;;;;;;;6222403;22;20055;-81
2022/07/01 11:39:36;;;;;;;5.88;1.35;;;;;;;;;;6250678;22;20049;-83
2022/07/01 11:42:27;;;;;;;5.23;0.93;;;;;;;;;;6229517;22;20123;-82
2022/07/01 11:44:55;;;;;;;2.70;0.93;;;;;;;;;;6223099;22;20031;-82
2022/07/01 11:47:28;;;;;;;3.72;0.70;;;;;;;;;;6225113;22;20111;-81
2022/07/01 11:50:02;;;;;;;2.33;0.80;;;;;;;;;;6223386;22;20016;-82
2022/07/01 11:52:31;;;;;;;2.40;0.88;;;;;;;;;;6256186;22;20661;-81
2022/07/01 11:55:12;;;;;;;3.97;0.80;;;;;;;;;;6251318;22;20887;-82
2022/07/01 11:57:59;;;;;;;3.58;1.10;;;;;;;;;;6233859;22;20081;-82
2022/07/01 12:00:37;;;;;;;3.78;0.80;;;;;;;;;;6260882;22;20023;-81
2022/07/01 12:03:07;;;;;;;6.85;0.90;;;;;;;;;;6232511;22;20056;-82
2022/07/01 12:05:50;;;;;;;4.13;1.10;;;;;;;;;;6227916;22;20009;-82
2022/07/01 12:08:31;;;;;;;3.67;0.87;;;;;;;;;;6245413;22;20083;-82
2022/07/01 12:11:05;;;;;;;7.82;1.10;;;;;;;;;;6225411;22;20055;-82
2022/07/01 12:13:38;;;;;;;2.53;0.60;;;;;;;;;;6231366;22;20016;-82
2022/07/01 12:16:15;;;;;;;;;;;;;;;;;;6235422;22;20063;-83
2022/07/01 12:19:14;;;;;;;3.15;0.88;;;;;;;;;;6233887;22;43666;-82
2022/07/01 12:22:00;;;;;;;3.00;0.90;;;;;;;;;;6220158;22;20521;-82
2022/07/01 12:24:38;;;;;;;2.53;0.93;;;;;;;;;;6224424;22;20472;-81
2022/07/01 12:27:10;;;;;;;3.67;1.00;;;;;;;;;;6223578;22;20071;-82
2022/07/01 12:29:51;;;;;;;7.22;1.25;;;;;;;;;;6221961;22;20808;-81
2022/07/01 12:32:24;;;;;;;2.42;1.00;;;;;;;;;;6223015;22;20048;-82
2022/07/01 12:34:52;;;;;;;;;;;;;;;;;;6222400;22;20029;-81
2022/07/01 12:37:31;;;;;;;4.38;0.90;;;;;;;;;;6222387;22;44607;-82
2022/07/01 12:40:03;;;;;;;4.33;1.10;;;;;;;;;;6221294;22;20016;-82
2022/07/01 12:42:42;;;;;;;4.70;1.00;;;;;;;;;;6221660;22;20024;-81
2022/07/01 12:45:16;;;;;;;4.30;1.17;;;;;;;;;;6221961;22;20489;-81
2022/07/01 12:47:44;;;;;;;4.90;0.95;;;;;;;;;;6222948;22;20019;-82
2022/07/01 12:50:27;;;;;;;3.22;0.88;;;;;;;;;;6222954;22;20020;-81
2022/07/01 12:52:59;;;;;;;4.90;0.70;;;;;;;;;;6223634;22;20013;-81
2022/07/01 12:55:28;;;;;;;4.15;1.30;;;;;;;;;;6222919;22;20100;-81
2022/07/01 12:58:01;;;;;;;1.95;1.00;;;;;;;;;;6217293;23;20029;-81
2022/07/01 13:00:36;;;;;;;4.40;1.10;;;;;;;;;;6217508;23;20024;-81
2022/07/01 13:03:07;;;;;;;3.20;0.93;;;;;;;;;;6217806;23;20017;-81
2022/07/01 13:05:40;;;;;;;4.75;1.10;;;;;;;;;;6217517;23;20344;-82
2022/07/01 13:08:15;;;;;;;6.55;1.25;;;;;;;;;;6218947;23;20021;-81
2022/07/01 13:10:42;;;;;;;4.28;0.90;;;;;;;;;;6217322;23;20036;-81
2022/07/01 13:13:19;;;;;;;5.47;0.98;;;;;;;;;;6219025;23;20100;-81
2022/07/01 13:15:55;;;;;;;3.67;1.10;;;;;;;;;;6217213;23;20100;-81
2022/07/01 13:18:37;;;;;;;5.57;1.17;;;;;;;;;;6217396;23;20023;-82
2022/07/01 13:21:06;;;;;;;5.35;1.10;;;;;;;;;;6216833;23;20817;-82
2022/07/01 13:23:33;;;;;;;3.40;1.02;;;;;;;;;;6217835;23;20037;-80
2022/07/01 13:26:09;;;;;;;3.95;1.20;;;;;;;;;;6218273;23;20021;-81
2022/07/01 13:28:37;;;;;;;5.10;1.15;;;;;;;;;;6218446;23;20033;-81
2022/07/01 13:31:04;;;;;;;5.85;1.35;;;;;;;;;;6218072;23;20753;-81
2022/07/01 13:33:31;;;;;;;4.95;1.23;;;;;;;;;;6217964;23;20021;-80
2022/07/01 13:36:01;;;;;;;6.57;1.50;;;;;;;;;;6218925;23;20025;-82
2022/07/01 13:38:28;;;;;;;5.60;1.40;;;;;;;;;;6218047;23;20021;-81
2022/07/01 13:40:55;;;;;;;4.70;1.52;;;;;;;;;;6217063;23;20762;-81
2022/07/01 13:43:32;;;;;;;4.20;1.20;;;;;;;;;;6217891;23;20805;-81
2022/07/01 13:46:05;;;;;;;3.28;1.30;;;;;;;;;;6217603;23;20705;-81
2022/07/01 13:48:32;;;;;;;9.38;1.48;;;;;;;;;;6219801;23;20021;-80
2022/07/01 13:51:00;;;;;;;5.13;1.25;;;;;;;;;;6219337;23;20024;-81
2022/07/01 13:53:34;;;;;;;7.53;1.48;;;;;;;;;;6219207;22;20017;-81
2022/07/01 13:56:03;;;;;;;6.63;1.60;;;;;;;;;;6219152;23;20860;-81
2022/07/01 13:58:32;;;;;;;4.70;1.60;;;;;;;;;;6248880;22;20692;-82
2022/07/01 14:00:59;;;;;;;3.88;1.38;;;;;;;;;;6249921;22;20107;-81
2022/07/01 14:03:43;;;;;;;8.27;1.50;;;;;;;;;;6222655;22;20302;-81
2022/07/01 14:06:14;;;;;;;4.57;1.10;;;;;;;;;;6222748;22;20024;-81
2022/07/01 14:08:45;;;;;;;3.03;1.33;;;;;;;;;;6250653;22;20021;-82
2022/07/01 14:11:12;;;;;;;7.07;1.50;;;;;;;;;;6223385;22;20023;-81
2022/07/01 14:13:49;;;;;;;3.70;1.33;;;;;;;;;;6230218;22;20020;-82
2022/07/01 14:16:22;;;;;;;7.15;1.50;;;;;;;;;;6228476;22;20016;-81
2022/07/01 14:18:58;;;;;;;4.70;1.40;;;;;;;;;;6225666;22;20048;-82
2022/07/01 14:21:26;;;;;;;4.15;1.58;;;;;;;;;;6250198;22;20470;-81
2022/07/01 14:24:20;;;;;;;5.47;1.65;;;;;;;;;;6224489;22;20044;-81
2022/07/01 14:26:48;;;;;;;2.75;1.15;;;;;;;;;;6250050;22;20994;-81
2022/07/01 14:29:44;;;;;;;4.93;1.50;;;;;;;;;;6223481;22;20032;-81
2022/07/01 14:32:16;;;;;;;11.95;1.58;;;;;;;;;;6248997;22;20020;-81
2022/07/01 14:34:44;;;;;;;10.02;1.48;;;;;;;;;;6222895;22;20048;-81
2022/07/01 14:37:13;;;;;;;5.03;1.33;;;;;;;;;;6223767;22;20802;-81
2022/07/01 14:39:41;;;;;;;4.43;1.33;;;;;;;;;;6222357;22;20075;-81
2022/07/01 14:42:14;;;;;;;4.25;0.90;;;;;;;;;;6224265;22;20021;-81
2022/07/01 14:44:48;;;;;;;6.35;1.00;;;;;;;;;;6222941;22;20021;-81
2022/07/01 14:47:25;;;;;;;5.97;1.20;;;;;;;;;;6222419;22;20100;-81
2022/07/01 14:49:56;;;;;;;7.80;1.20;;;;;;;;;;6222681;22;20095;-81
2022/07/01 14:52:25;;;;;;;4.60;1.40;;;;;;;;;;6249972;22;20099;-81
2022/07/01 14:54:52;;;;;;;3.38;0.98;;;;;;;;;;6220302;22;20075;-81
2022/07/01 14:57:20;;;;;;;4.50;1.20;;;;;;;;;;6248075;22;20017;-81
2022/07/01 14:59:56;;;;;;;3.08;1.00;;;;;;;;;;6249251;22;20044;-80
2022/07/01 15:02:32;;;;;;;5.53;1.10;;;;;;;;;;6222723;22;20017;-81
2022/07/01 15:05:02;;;;;;;4.93;1.20;;;;;;;;;;6222566;22;20100;-81
2022/07/01 15:07:29;;;;;;;2.13;1.20;;;;;;;;;;6222841;22;20087;-81
2022/07/01 15:10:01;;;;;;;8.63;1.10;;;;;;;;;;6249765;22;20111;-82
2022/07/01 15:12:31;;;;;;;4.97;1.50;;;;;;;;;;6249604;22;20417;-81